sensor_id;sensor_type;location;lat;lon;timestamp;P1;durP1;ratioP1;P2;durP2;ratioP2
62102;SDS011;48077;48.104;11.702;2023-01-28T00:00:01;33.63;;;15.23;;
62102;SDS011;48077;48.104;11.702;2023-01-28T00:02:26;31.92;;;16.15;;
62102;SDS011;48077;48.104;11.702;2023-01-28T00:04:49;29.92;;;15.18;;
62102;SDS011;48077;48.104;11.702;2023-01-28T00:07:13;25.95;;;14.25;;
62102;SDS011;48077;48.104;11.702;2023-01-28T00:09:37;26.73;;;14.15;;
62102;SDS011;48077;48.104;11.702;2023-01-28T00:12:01;27.58;;;13.63;;
62102;SDS011;48077;48.104;11.702;2023-01-28T00:14:24;29.40;;;14.70;;
62102;SDS011;48077;48.104;11.702;2023-01-28T00:16:48;27.77;;;14.20;;
62102;SDS011;48077;48.104;11.702;2023-01-28T00:19:11;23.85;;;12.75;;
62102;SDS011;48077;48.104;11.702;2023-01-28T00:21:35;27.80;;;13.35;;
62102;SDS011;48077;48.104;11.702;2023-01-28T00:23:58;29.40;;;14.93;;
62102;SDS011;48077;48.104;11.702;2023-01-28T00:26:22;27.13;;;14.35;;
62102;SDS011;48077;48.104;11.702;2023-01-28T00:28:47;30.33;;;13.90;;
62102;SDS011;48077;48.104;11.702;2023-01-28T00:31:20;31.25;;;15.45;;
62102;SDS011;48077;48.104;11.702;2023-01-28T00:33:46;31.23;;;15.32;;
62102;SDS011;48077;48.104;11.702;2023-01-28T00:36:11;25.80;;;12.52;;
62102;SDS011;48077;48.104;11.702;2023-01-28T00:38:35;26.52;;;13.90;;
62102;SDS011;48077;48.104;11.702;2023-01-28T00:41:15;30.38;;;14.68;;
62102;SDS011;48077;48.104;11.702;2023-01-28T00:43:40;28.10;;;14.48;;
62102;SDS011;48077;48.104;11.702;2023-01-28T00:46:04;31.42;;;15.23;;
62102;SDS011;48077;48.104;11.702;2023-01-28T00:48:29;29.10;;;14.65;;
62102;SDS011;48077;48.104;11.702;2023-01-28T00:50:52;26.27;;;13.13;;
62102;SDS011;48077;48.104;11.702;2023-01-28T00:53:16;30.77;;;14.57;;
62102;SDS011;48077;48.104;11.702;2023-01-28T00:55:39;26.38;;;13.70;;
62102;SDS011;48077;48.104;11.702;2023-01-28T00:58:02;29.00;;;13.98;;
62102;SDS011;48077;48.104;11.702;2023-01-28T01:00:26;33.00;;;15.50;;
62102;SDS011;48077;48.104;11.702;2023-01-28T01:02:49;28.00;;;14.02;;
62102;SDS011;48077;48.104;11.702;2023-01-28T01:05:12;33.92;;;15.65;;
62102;SDS011;48077;48.104;11.702;2023-01-28T01:07:36;31.05;;;14.95;;
62102;SDS011;48077;48.104;11.702;2023-01-28T01:12:29;30.30;;;17.05;;
62102;SDS011;48077;48.104;11.702;2023-01-28T01:14:52;28.27;;;15.20;;
62102;SDS011;48077;48.104;11.702;2023-01-28T01:17:15;29.33;;;14.65;;
62102;SDS011;48077;48.104;11.702;2023-01-28T01:19:39;27.33;;;13.95;;
62102;SDS011;48077;48.104;11.702;2023-01-28T01:22:02;29.27;;;14.45;;
62102;SDS011;48077;48.104;11.702;2023-01-28T01:24:26;22.75;;;12.75;;
62102;SDS011;48077;48.104;11.702;2023-01-28T01:26:51;25.83;;;13.57;;
62102;SDS011;48077;48.104;11.702;2023-01-28T01:29:15;27.58;;;14.80;;
62102;SDS011;48077;48.104;11.702;2023-01-28T01:31:38;24.70;;;13.02;;
62102;SDS011;48077;48.104;11.702;2023-01-28T01:34:01;26.92;;;14.23;;
62102;SDS011;48077;48.104;11.702;2023-01-28T01:36:25;29.48;;;13.00;;
62102;SDS011;48077;48.104;11.702;2023-01-28T01:38:51;28.98;;;14.50;;
62102;SDS011;48077;48.104;11.702;2023-01-28T01:41:24;29.40;;;14.60;;
62102;SDS011;48077;48.104;11.702;2023-01-28T01:43:50;25.13;;;12.80;;
62102;SDS011;48077;48.104;11.702;2023-01-28T01:46:39;24.88;;;13.25;;
62102;SDS011;48077;48.104;11.702;2023-01-28T01:49:07;27.55;;;11.32;;
62102;SDS011;48077;48.104;11.702;2023-01-28T01:51:38;24.38;;;12.57;;
62102;SDS011;48077;48.104;11.702;2023-01-28T01:54:02;30.48;;;15.05;;
62102;SDS011;48077;48.104;11.702;2023-01-28T01:56:28;24.40;;;13.45;;
62102;SDS011;48077;48.104;11.702;2023-01-28T01:58:54;30.00;;;14.13;;
62102;SDS011;48077;48.104;11.702;2023-01-28T02:01:19;28.80;;;14.05;;
62102;SDS011;48077;48.104;11.702;2023-01-28T02:04:02;25.70;;;13.02;;
62102;SDS011;48077;48.104;11.702;2023-01-28T02:06:30;29.50;;;15.15;;
62102;SDS011;48077;48.104;11.702;2023-01-28T02:08:55;31.23;;;14.27;;
62102;SDS011;48077;48.104;11.702;2023-01-28T02:11:19;28.58;;;15.35;;
62102;SDS011;48077;48.104;11.702;2023-01-28T02:13:43;32.03;;;14.35;;
62102;SDS011;48077;48.104;11.702;2023-01-28T02:16:10;27.55;;;13.48;;
62102;SDS011;48077;48.104;11.702;2023-01-28T02:18:35;28.05;;;14.15;;
62102;SDS011;48077;48.104;11.702;2023-01-28T02:21:08;28.52;;;14.57;;
62102;SDS011;48077;48.104;11.702;2023-01-28T02:30:19;26.80;;;13.73;;
62102;SDS011;48077;48.104;11.702;2023-01-28T02:33:29;22.90;;;14.20;;
62102;SDS011;48077;48.104;11.702;2023-01-28T02:35:51;26.60;;;13.35;;
62102;SDS011;48077;48.104;11.702;2023-01-28T02:40:46;27.65;;;14.02;;
62102;SDS011;48077;48.104;11.702;2023-01-28T02:43:41;29.00;;;15.40;;
62102;SDS011;48077;48.104;11.702;2023-01-28T02:49:08;31.63;;;15.43;;
62102;SDS011;48077;48.104;11.702;2023-01-28T02:51:41;29.83;;;15.23;;
62102;SDS011;48077;48.104;11.702;2023-01-28T02:57:00;27.08;;;13.68;;
62102;SDS011;48077;48.104;11.702;2023-01-28T02:59:44;19.88;;;12.00;;
62102;SDS011;48077;48.104;11.702;2023-01-28T03:02:38;28.02;;;13.63;;
62102;SDS011;48077;48.104;11.702;2023-01-28T03:08:26;24.30;;;14.50;;
62102;SDS011;48077;48.104;11.702;2023-01-28T03:11:08;27.45;;;15.07;;
62102;SDS011;48077;48.104;11.702;2023-01-28T03:13:49;26.45;;;13.32;;
62102;SDS011;48077;48.104;11.702;2023-01-28T03:16:31;27.25;;;14.60;;
62102;SDS011;48077;48.104;11.702;2023-01-28T03:19:15;29.90;;;15.60;;
62102;SDS011;48077;48.104;11.702;2023-01-28T03:21:58;30.38;;;14.45;;
62102;SDS011;48077;48.104;11.702;2023-01-28T03:24:45;31.63;;;15.40;;
62102;SDS011;48077;48.104;11.702;2023-01-28T03:27:49;28.77;;;14.65;;
62102;SDS011;48077;48.104;11.702;2023-01-28T03:30:56;30.83;;;15.75;;
62102;SDS011;48077;48.104;11.702;2023-01-28T03:33:45;25.42;;;13.45;;
62102;SDS011;48077;48.104;11.702;2023-01-28T03:36:28;26.52;;;13.43;;
62102;SDS011;48077;48.104;11.702;2023-01-28T03:39:11;30.10;;;14.32;;
62102;SDS011;48077;48.104;11.702;2023-01-28T03:41:34;26.95;;;14.38;;
62102;SDS011;48077;48.104;11.702;2023-01-28T03:43:58;28.42;;;13.90;;
62102;SDS011;48077;48.104;11.702;2023-01-28T03:46:39;24.90;;;13.70;;
62102;SDS011;48077;48.104;11.702;2023-01-28T03:49:04;27.08;;;14.20;;
62102;SDS011;48077;48.104;11.702;2023-01-28T03:51:27;26.02;;;12.88;;
62102;SDS011;48077;48.104;11.702;2023-01-28T03:53:51;29.23;;;12.75;;
62102;SDS011;48077;48.104;11.702;2023-01-28T03:56:14;31.05;;;16.60;;
62102;SDS011;48077;48.104;11.702;2023-01-28T03:58:41;28.52;;;14.25;;
62102;SDS011;48077;48.104;11.702;2023-01-28T04:01:18;25.35;;;13.52;;
62102;SDS011;48077;48.104;11.702;2023-01-28T04:03:42;27.77;;;13.27;;
62102;SDS011;48077;48.104;11.702;2023-01-28T04:06:06;29.65;;;13.60;;
62102;SDS011;48077;48.104;11.702;2023-01-28T04:08:31;25.10;;;13.48;;
62102;SDS011;48077;48.104;11.702;2023-01-28T04:10:55;24.15;;;12.50;;
62102;SDS011;48077;48.104;11.702;2023-01-28T04:13:19;27.20;;;13.32;;
62102;SDS011;48077;48.104;11.702;2023-01-28T04:15:42;27.55;;;13.75;;
62102;SDS011;48077;48.104;11.702;2023-01-28T04:18:07;28.45;;;13.00;;
62102;SDS011;48077;48.104;11.702;2023-01-28T04:20:31;22.73;;;12.70;;
62102;SDS011;48077;48.104;11.702;2023-01-28T04:22:54;24.80;;;13.43;;
62102;SDS011;48077;48.104;11.702;2023-01-28T04:25:18;26.90;;;13.27;;
62102;SDS011;48077;48.104;11.702;2023-01-28T04:27:41;25.65;;;13.27;;
62102;SDS011;48077;48.104;11.702;2023-01-28T04:30:04;35.08;;;15.20;;
62102;SDS011;48077;48.104;11.702;2023-01-28T04:32:28;31.17;;;14.70;;
62102;SDS011;48077;48.104;11.702;2023-01-28T04:34:51;26.35;;;14.02;;
62102;SDS011;48077;48.104;11.702;2023-01-28T04:37:15;32.40;;;14.85;;
62102;SDS011;48077;48.104;11.702;2023-01-28T04:39:38;23.02;;;12.98;;
62102;SDS011;48077;48.104;11.702;2023-01-28T04:42:02;28.00;;;14.23;;
62102;SDS011;48077;48.104;11.702;2023-01-28T04:44:25;25.45;;;12.45;;
62102;SDS011;48077;48.104;11.702;2023-01-28T04:46:48;26.95;;;12.77;;
62102;SDS011;48077;48.104;11.702;2023-01-28T04:49:12;27.60;;;14.02;;
62102;SDS011;48077;48.104;11.702;2023-01-28T04:51:35;27.50;;;13.35;;
62102;SDS011;48077;48.104;11.702;2023-01-28T04:54:01;29.63;;;14.15;;
62102;SDS011;48077;48.104;11.702;2023-01-28T04:56:24;31.27;;;15.52;;
62102;SDS011;48077;48.104;11.702;2023-01-28T04:58:47;31.25;;;15.63;;
62102;SDS011;48077;48.104;11.702;2023-01-28T05:01:11;33.67;;;16.10;;
62102;SDS011;48077;48.104;11.702;2023-01-28T05:03:34;32.42;;;16.20;;
62102;SDS011;48077;48.104;11.702;2023-01-28T05:05:57;27.52;;;13.50;;
62102;SDS011;48077;48.104;11.702;2023-01-28T05:08:21;29.88;;;14.10;;
62102;SDS011;48077;48.104;11.702;2023-01-28T05:10:44;26.98;;;13.77;;
62102;SDS011;48077;48.104;11.702;2023-01-28T05:13:08;29.13;;;13.32;;
62102;SDS011;48077;48.104;11.702;2023-01-28T05:15:31;29.85;;;14.50;;
62102;SDS011;48077;48.104;11.702;2023-01-28T05:17:54;29.38;;;14.55;;
62102;SDS011;48077;48.104;11.702;2023-01-28T05:20:19;29.80;;;14.68;;
62102;SDS011;48077;48.104;11.702;2023-01-28T05:22:42;29.77;;;14.15;;
62102;SDS011;48077;48.104;11.702;2023-01-28T05:25:06;32.55;;;16.30;;
62102;SDS011;48077;48.104;11.702;2023-01-28T05:27:30;31.25;;;15.57;;
62102;SDS011;48077;48.104;11.702;2023-01-28T05:29:54;29.08;;;13.98;;
62102;SDS011;48077;48.104;11.702;2023-01-28T05:32:18;29.27;;;14.02;;
62102;SDS011;48077;48.104;11.702;2023-01-28T05:34:41;29.08;;;13.73;;
62102;SDS011;48077;48.104;11.702;2023-01-28T05:37:04;30.60;;;14.73;;
62102;SDS011;48077;48.104;11.702;2023-01-28T05:39:28;29.58;;;13.77;;
62102;SDS011;48077;48.104;11.702;2023-01-28T05:41:51;32.22;;;16.17;;
62102;SDS011;48077;48.104;11.702;2023-01-28T05:44:14;25.77;;;12.57;;
62102;SDS011;48077;48.104;11.702;2023-01-28T05:46:38;31.02;;;13.43;;
62102;SDS011;48077;48.104;11.702;2023-01-28T05:49:07;26.83;;;13.80;;
62102;SDS011;48077;48.104;11.702;2023-01-28T05:51:34;31.63;;;15.43;;
62102;SDS011;48077;48.104;11.702;2023-01-28T05:53:57;29.90;;;14.15;;
62102;SDS011;48077;48.104;11.702;2023-01-28T05:56:20;26.98;;;14.00;;
62102;SDS011;48077;48.104;11.702;2023-01-28T05:58:44;31.30;;;14.25;;
62102;SDS011;48077;48.104;11.702;2023-01-28T06:01:07;24.80;;;12.55;;
62102;SDS011;48077;48.104;11.702;2023-01-28T06:03:30;28.08;;;13.23;;
62102;SDS011;48077;48.104;11.702;2023-01-28T06:05:54;29.55;;;13.65;;
62102;SDS011;48077;48.104;11.702;2023-01-28T06:08:17;30.08;;;14.05;;
62102;SDS011;48077;48.104;11.702;2023-01-28T06:10:41;28.25;;;14.68;;
62102;SDS011;48077;48.104;11.702;2023-01-28T06:13:04;26.90;;;13.48;;
62102;SDS011;48077;48.104;11.702;2023-01-28T06:15:27;28.08;;;14.15;;
62102;SDS011;48077;48.104;11.702;2023-01-28T06:17:51;31.25;;;13.40;;
62102;SDS011;48077;48.104;11.702;2023-01-28T06:20:14;24.10;;;11.90;;
62102;SDS011;48077;48.104;11.702;2023-01-28T06:22:38;25.17;;;12.63;;
62102;SDS011;48077;48.104;11.702;2023-01-28T06:25:02;30.70;;;14.38;;
62102;SDS011;48077;48.104;11.702;2023-01-28T06:27:26;31.60;;;14.27;;
62102;SDS011;48077;48.104;11.702;2023-01-28T06:29:49;30.77;;;14.63;;
62102;SDS011;48077;48.104;11.702;2023-01-28T06:32:12;30.05;;;13.82;;
62102;SDS011;48077;48.104;11.702;2023-01-28T06:34:36;29.20;;;14.93;;
62102;SDS011;48077;48.104;11.702;2023-01-28T06:36:59;25.02;;;13.68;;
62102;SDS011;48077;48.104;11.702;2023-01-28T06:39:22;27.92;;;13.38;;
62102;SDS011;48077;48.104;11.702;2023-01-28T06:41:46;29.38;;;14.02;;
62102;SDS011;48077;48.104;11.702;2023-01-28T06:44:10;25.58;;;13.25;;
62102;SDS011;48077;48.104;11.702;2023-01-28T06:46:34;26.00;;;13.73;;
62102;SDS011;48077;48.104;11.702;2023-01-28T06:48:57;25.00;;;13.18;;
62102;SDS011;48077;48.104;11.702;2023-01-28T06:51:21;30.20;;;13.52;;
62102;SDS011;48077;48.104;11.702;2023-01-28T06:53:44;26.00;;;13.77;;
62102;SDS011;48077;48.104;11.702;2023-01-28T06:56:07;29.70;;;13.88;;
62102;SDS011;48077;48.104;11.702;2023-01-28T06:58:31;27.92;;;13.38;;
62102;SDS011;48077;48.104;11.702;2023-01-28T07:00:54;26.35;;;12.57;;
62102;SDS011;48077;48.104;11.702;2023-01-28T07:03:17;27.08;;;14.55;;
62102;SDS011;48077;48.104;11.702;2023-01-28T07:05:41;29.50;;;15.27;;
62102;SDS011;48077;48.104;11.702;2023-01-28T07:08:04;28.33;;;13.48;;
62102;SDS011;48077;48.104;11.702;2023-01-28T07:10:29;30.70;;;13.30;;
62102;SDS011;48077;48.104;11.702;2023-01-28T07:12:52;30.02;;;15.27;;
62102;SDS011;48077;48.104;11.702;2023-01-28T07:15:15;27.90;;;14.05;;
62102;SDS011;48077;48.104;11.702;2023-01-28T07:17:43;27.23;;;14.10;;
62102;SDS011;48077;48.104;11.702;2023-01-28T07:20:07;33.72;;;14.43;;
62102;SDS011;48077;48.104;11.702;2023-01-28T07:22:32;27.35;;;13.32;;
62102;SDS011;48077;48.104;11.702;2023-01-28T07:24:55;29.52;;;14.82;;
62102;SDS011;48077;48.104;11.702;2023-01-28T07:27:20;29.58;;;14.70;;
62102;SDS011;48077;48.104;11.702;2023-01-28T07:29:44;31.73;;;14.75;;
62102;SDS011;48077;48.104;11.702;2023-01-28T07:32:07;30.00;;;13.75;;
62102;SDS011;48077;48.104;11.702;2023-01-28T07:34:30;25.65;;;13.05;;
62102;SDS011;48077;48.104;11.702;2023-01-28T07:36:54;29.30;;;14.27;;
62102;SDS011;48077;48.104;11.702;2023-01-28T07:39:17;25.30;;;13.18;;
62102;SDS011;48077;48.104;11.702;2023-01-28T07:41:40;31.52;;;14.98;;
62102;SDS011;48077;48.104;11.702;2023-01-28T07:44:04;25.58;;;12.95;;
62102;SDS011;48077;48.104;11.702;2023-01-28T07:46:27;27.83;;;14.52;;
62102;SDS011;48077;48.104;11.702;2023-01-28T07:48:50;26.58;;;12.68;;
62102;SDS011;48077;48.104;11.702;2023-01-28T07:51:14;29.95;;;14.48;;
62102;SDS011;48077;48.104;11.702;2023-01-28T07:53:37;31.42;;;14.73;;
62102;SDS011;48077;48.104;11.702;2023-01-28T07:56:01;28.27;;;14.57;;
62102;SDS011;48077;48.104;11.702;2023-01-28T07:58:24;25.80;;;12.80;;
62102;SDS011;48077;48.104;11.702;2023-01-28T08:00:48;29.25;;;14.18;;
62102;SDS011;48077;48.104;11.702;2023-01-28T08:03:12;26.95;;;14.25;;
62102;SDS011;48077;48.104;11.702;2023-01-28T08:05:40;30.05;;;13.27;;
62102;SDS011;48077;48.104;11.702;2023-01-28T08:08:07;27.73;;;14.15;;
62102;SDS011;48077;48.104;11.702;2023-01-28T08:10:30;28.20;;;13.68;;
62102;SDS011;48077;48.104;11.702;2023-01-28T08:12:54;28.50;;;14.25;;
62102;SDS011;48077;48.104;11.702;2023-01-28T08:15:21;28.35;;;14.15;;
62102;SDS011;48077;48.104;11.702;2023-01-28T08:17:44;27.15;;;13.98;;
62102;SDS011;48077;48.104;11.702;2023-01-28T08:20:08;30.48;;;14.32;;
62102;SDS011;48077;48.104;11.702;2023-01-28T08:22:32;25.38;;;12.85;;
62102;SDS011;48077;48.104;11.702;2023-01-28T08:24:55;29.20;;;13.00;;
62102;SDS011;48077;48.104;11.702;2023-01-28T08:27:18;31.98;;;14.25;;
62102;SDS011;48077;48.104;11.702;2023-01-28T08:29:42;27.30;;;14.68;;
62102;SDS011;48077;48.104;11.702;2023-01-28T08:32:06;29.45;;;14.27;;
62102;SDS011;48077;48.104;11.702;2023-01-28T08:34:29;27.38;;;14.15;;
62102;SDS011;48077;48.104;11.702;2023-01-28T08:36:52;25.67;;;13.55;;
62102;SDS011;48077;48.104;11.702;2023-01-28T08:39:16;27.80;;;13.15;;
62102;SDS011;48077;48.104;11.702;2023-01-28T08:41:39;33.00;;;13.27;;
62102;SDS011;48077;48.104;11.702;2023-01-28T08:44:03;28.58;;;13.48;;
62102;SDS011;48077;48.104;11.702;2023-01-28T08:46:26;26.52;;;12.27;;
62102;SDS011;48077;48.104;11.702;2023-01-28T08:48:49;22.65;;;12.02;;
62102;SDS011;48077;48.104;11.702;2023-01-28T08:51:13;24.25;;;12.82;;
62102;SDS011;48077;48.104;11.702;2023-01-28T08:53:36;28.48;;;13.30;;
62102;SDS011;48077;48.104;11.702;2023-01-28T08:56:00;25.13;;;13.07;;
62102;SDS011;48077;48.104;11.702;2023-01-28T08:58:23;25.27;;;12.02;;
62102;SDS011;48077;48.104;11.702;2023-01-28T09:00:47;28.13;;;13.85;;
62102;SDS011;48077;48.104;11.702;2023-01-28T09:03:10;23.98;;;12.27;;
62102;SDS011;48077;48.104;11.702;2023-01-28T09:05:34;27.40;;;12.75;;
62102;SDS011;48077;48.104;11.702;2023-01-28T09:08:02;21.60;;;11.35;;
62102;SDS011;48077;48.104;11.702;2023-01-28T09:10:26;25.20;;;11.93;;
62102;SDS011;48077;48.104;11.702;2023-01-28T09:12:50;25.45;;;11.55;;
62102;SDS011;48077;48.104;11.702;2023-01-28T09:15:13;25.30;;;11.90;;
62102;SDS011;48077;48.104;11.702;2023-01-28T09:17:36;23.38;;;12.10;;
62102;SDS011;48077;48.104;11.702;2023-01-28T09:20:00;23.92;;;12.25;;
62102;SDS011;48077;48.104;11.702;2023-01-28T09:22:23;23.23;;;11.32;;
62102;SDS011;48077;48.104;11.702;2023-01-28T09:24:47;23.15;;;11.23;;
62102;SDS011;48077;48.104;11.702;2023-01-28T09:27:10;27.35;;;14.18;;
62102;SDS011;48077;48.104;11.702;2023-01-28T09:29:34;25.20;;;12.00;;
62102;SDS011;48077;48.104;11.702;2023-01-28T09:31:57;24.60;;;12.82;;
62102;SDS011;48077;48.104;11.702;2023-01-28T09:34:21;22.73;;;11.57;;
62102;SDS011;48077;48.104;11.702;2023-01-28T09:36:44;20.25;;;10.98;;
62102;SDS011;48077;48.104;11.702;2023-01-28T09:39:07;21.15;;;10.57;;
62102;SDS011;48077;48.104;11.702;2023-01-28T09:41:33;22.50;;;9.98;;
62102;SDS011;48077;48.104;11.702;2023-01-28T09:44:16;22.98;;;10.88;;
62102;SDS011;48077;48.104;11.702;2023-01-28T09:47:19;26.58;;;11.38;;
62102;SDS011;48077;48.104;11.702;2023-01-28T09:49:48;20.00;;;10.70;;
62102;SDS011;48077;48.104;11.702;2023-01-28T09:52:16;19.80;;;10.88;;
62102;SDS011;48077;48.104;11.702;2023-01-28T09:54:42;21.13;;;9.75;;
62102;SDS011;48077;48.104;11.702;2023-01-28T09:57:13;22.52;;;11.25;;
62102;SDS011;48077;48.104;11.702;2023-01-28T09:59:42;22.55;;;11.90;;
62102;SDS011;48077;48.104;11.702;2023-01-28T10:05:43;21.05;;;9.98;;
62102;SDS011;48077;48.104;11.702;2023-01-28T10:08:16;22.75;;;11.02;;
62102;SDS011;48077;48.104;11.702;2023-01-28T10:10:55;22.02;;;11.40;;
62102;SDS011;48077;48.104;11.702;2023-01-28T10:13:48;24.35;;;10.85;;
62102;SDS011;48077;48.104;11.702;2023-01-28T10:16:37;22.27;;;11.18;;
62102;SDS011;48077;48.104;11.702;2023-01-28T10:19:06;22.05;;;10.27;;
62102;SDS011;48077;48.104;11.702;2023-01-28T10:21:40;24.35;;;11.60;;
62102;SDS011;48077;48.104;11.702;2023-01-28T10:24:10;25.80;;;12.23;;
62102;SDS011;48077;48.104;11.702;2023-01-28T10:26:40;24.13;;;11.10;;
62102;SDS011;48077;48.104;11.702;2023-01-28T10:29:10;22.15;;;10.30;;
62102;SDS011;48077;48.104;11.702;2023-01-28T10:31:40;19.42;;;10.15;;
62102;SDS011;48077;48.104;11.702;2023-01-28T10:34:12;24.30;;;11.93;;
62102;SDS011;48077;48.104;11.702;2023-01-28T10:36:36;25.60;;;12.15;;
62102;SDS011;48077;48.104;11.702;2023-01-28T10:38:59;23.58;;;12.13;;
62102;SDS011;48077;48.104;11.702;2023-01-28T10:41:23;26.08;;;12.93;;
62102;SDS011;48077;48.104;11.702;2023-01-28T10:43:48;20.98;;;11.13;;
62102;SDS011;48077;48.104;11.702;2023-01-28T10:46:16;22.25;;;11.93;;
62102;SDS011;48077;48.104;11.702;2023-01-28T10:48:54;24.08;;;11.23;;
62102;SDS011;48077;48.104;11.702;2023-01-28T10:51:38;26.80;;;13.23;;
62102;SDS011;48077;48.104;11.702;2023-01-28T10:54:16;22.58;;;11.68;;
62102;SDS011;48077;48.104;11.702;2023-01-28T10:56:40;25.27;;;12.02;;
62102;SDS011;48077;48.104;11.702;2023-01-28T10:59:21;22.45;;;12.38;;
62102;SDS011;48077;48.104;11.702;2023-01-28T11:04:33;23.15;;;11.30;;
62102;SDS011;48077;48.104;11.702;2023-01-28T11:06:59;23.38;;;11.57;;
62102;SDS011;48077;48.104;11.702;2023-01-28T11:09:44;23.98;;;12.18;;
62102;SDS011;48077;48.104;11.702;2023-01-28T11:12:11;24.55;;;12.27;;
62102;SDS011;48077;48.104;11.702;2023-01-28T11:14:48;25.67;;;12.30;;
62102;SDS011;48077;48.104;11.702;2023-01-28T11:17:15;22.50;;;12.70;;
62102;SDS011;48077;48.104;11.702;2023-01-28T11:19:40;23.75;;;12.30;;
62102;SDS011;48077;48.104;11.702;2023-01-28T11:22:04;25.88;;;11.70;;
62102;SDS011;48077;48.104;11.702;2023-01-28T11:24:28;25.75;;;12.02;;
62102;SDS011;48077;48.104;11.702;2023-01-28T11:26:54;27.95;;;13.52;;
62102;SDS011;48077;48.104;11.702;2023-01-28T11:29:21;24.80;;;12.70;;
62102;SDS011;48077;48.104;11.702;2023-01-28T11:31:45;22.52;;;12.13;;
62102;SDS011;48077;48.104;11.702;2023-01-28T11:34:10;25.15;;;12.60;;
62102;SDS011;48077;48.104;11.702;2023-01-28T11:39:02;21.33;;;11.85;;
62102;SDS011;48077;48.104;11.702;2023-01-28T11:41:38;25.80;;;11.88;;
62102;SDS011;48077;48.104;11.702;2023-01-28T11:49:23;21.85;;;10.82;;
62102;SDS011;48077;48.104;11.702;2023-01-28T11:54:43;24.52;;;12.38;;
62102;SDS011;48077;48.104;11.702;2023-01-28T11:59:57;22.10;;;11.40;;
62102;SDS011;48077;48.104;11.702;2023-01-28T12:02:45;20.77;;;10.98;;
62102;SDS011;48077;48.104;11.702;2023-01-28T12:05:15;26.65;;;12.63;;
62102;SDS011;48077;48.104;11.702;2023-01-28T12:08:15;25.10;;;12.15;;
62102;SDS011;48077;48.104;11.702;2023-01-28T12:13:50;24.27;;;11.20;;
62102;SDS011;48077;48.104;11.702;2023-01-28T12:19:32;26.10;;;11.55;;
62102;SDS011;48077;48.104;11.702;2023-01-28T12:36:01;20.92;;;11.23;;
62102;SDS011;48077;48.104;11.702;2023-01-28T12:41:21;18.13;;;10.30;;
62102;SDS011;48077;48.104;11.702;2023-01-28T12:43:56;19.70;;;9.35;;
62102;SDS011;48077;48.104;11.702;2023-01-28T12:46:38;16.77;;;8.95;;
62102;SDS011;48077;48.104;11.702;2023-01-28T12:49:08;25.75;;;12.02;;
62102;SDS011;48077;48.104;11.702;2023-01-28T12:51:45;25.70;;;13.20;;
62102;SDS011;48077;48.104;11.702;2023-01-28T12:54:16;22.23;;;10.68;;
62102;SDS011;48077;48.104;11.702;2023-01-28T12:57:01;20.98;;;10.52;;
62102;SDS011;48077;48.104;11.702;2023-01-28T13:09:37;16.98;;;9.70;;
62102;SDS011;48077;48.104;11.702;2023-01-28T13:12:08;20.02;;;9.63;;
62102;SDS011;48077;48.104;11.702;2023-01-28T13:14:33;17.45;;;9.18;;
62102;SDS011;48077;48.104;11.702;2023-01-28T13:17:23;18.60;;;10.15;;
62102;SDS011;48077;48.104;11.702;2023-01-28T13:19:49;19.63;;;10.68;;
62102;SDS011;48077;48.104;11.702;2023-01-28T13:22:25;15.35;;;9.18;;
62102;SDS011;48077;48.104;11.702;2023-01-28T13:24:49;19.77;;;11.20;;
62102;SDS011;48077;48.104;11.702;2023-01-28T13:27:20;18.80;;;10.10;;
62102;SDS011;48077;48.104;11.702;2023-01-28T13:29:46;20.25;;;10.02;;
62102;SDS011;48077;48.104;11.702;2023-01-28T13:32:27;14.70;;;8.40;;
62102;SDS011;48077;48.104;11.702;2023-01-28T13:34:59;27.02;;;10.93;;
62102;SDS011;48077;48.104;11.702;2023-01-28T13:37:37;25.42;;;10.85;;
62102;SDS011;48077;48.104;11.702;2023-01-28T13:40:08;18.27;;;9.88;;
62102;SDS011;48077;48.104;11.702;2023-01-28T13:42:58;18.70;;;9.65;;
62102;SDS011;48077;48.104;11.702;2023-01-28T13:45:27;18.10;;;8.65;;
62102;SDS011;48077;48.104;11.702;2023-01-28T13:47:52;19.40;;;9.82;;
62102;SDS011;48077;48.104;11.702;2023-01-28T13:50:21;23.85;;;10.90;;
62102;SDS011;48077;48.104;11.702;2023-01-28T13:52:52;17.73;;;9.43;;
62102;SDS011;48077;48.104;11.702;2023-01-28T13:55:20;22.83;;;9.15;;
62102;SDS011;48077;48.104;11.702;2023-01-28T14:00:34;19.45;;;9.52;;
62102;SDS011;48077;48.104;11.702;2023-01-28T14:20:19;20.55;;;9.90;;
62102;SDS011;48077;48.104;11.702;2023-01-28T14:22:45;20.60;;;11.18;;
62102;SDS011;48077;48.104;11.702;2023-01-28T14:25:14;17.65;;;8.90;;
62102;SDS011;48077;48.104;11.702;2023-01-28T14:27:43;17.65;;;9.18;;
62102;SDS011;48077;48.104;11.702;2023-01-28T14:30:15;21.20;;;10.10;;
62102;SDS011;48077;48.104;11.702;2023-01-28T14:32:47;18.73;;;8.88;;
62102;SDS011;48077;48.104;11.702;2023-01-28T14:35:15;15.10;;;8.50;;
62102;SDS011;48077;48.104;11.702;2023-01-28T14:37:42;17.20;;;8.38;;
62102;SDS011;48077;48.104;11.702;2023-01-28T14:40:06;18.50;;;9.10;;
62102;SDS011;48077;48.104;11.702;2023-01-28T14:42:35;19.08;;;9.20;;
62102;SDS011;48077;48.104;11.702;2023-01-28T14:56:29;17.35;;;8.85;;
62102;SDS011;48077;48.104;11.702;2023-01-28T14:58:58;18.35;;;8.32;;
62102;SDS011;48077;48.104;11.702;2023-01-28T15:01:26;18.27;;;8.00;;
62102;SDS011;48077;48.104;11.702;2023-01-28T15:03:51;18.65;;;8.40;;
62102;SDS011;48077;48.104;11.702;2023-01-28T15:06:17;19.27;;;9.30;;
62102;SDS011;48077;48.104;11.702;2023-01-28T15:08:42;20.40;;;10.35;;
62102;SDS011;48077;48.104;11.702;2023-01-28T15:11:07;20.10;;;10.40;;
62102;SDS011;48077;48.104;11.702;2023-01-28T15:13:37;22.77;;;11.27;;
62102;SDS011;48077;48.104;11.702;2023-01-28T15:16:05;21.88;;;10.65;;
62102;SDS011;48077;48.104;11.702;2023-01-28T15:18:33;21.10;;;10.48;;
62102;SDS011;48077;48.104;11.702;2023-01-28T15:20:59;23.38;;;12.10;;
62102;SDS011;48077;48.104;11.702;2023-01-28T15:23:28;21.55;;;10.48;;
62102;SDS011;48077;48.104;11.702;2023-01-28T15:25:55;28.77;;;11.50;;
62102;SDS011;48077;48.104;11.702;2023-01-28T15:28:28;29.58;;;12.77;;
62102;SDS011;48077;48.104;11.702;2023-01-28T15:30:54;22.13;;;10.52;;
62102;SDS011;48077;48.104;11.702;2023-01-28T15:33:19;30.08;;;12.98;;
62102;SDS011;48077;48.104;11.702;2023-01-28T15:35:47;23.17;;;10.25;;
62102;SDS011;48077;48.104;11.702;2023-01-28T15:38:15;20.23;;;10.25;;
62102;SDS011;48077;48.104;11.702;2023-01-28T15:40:43;29.15;;;12.40;;
62102;SDS011;48077;48.104;11.702;2023-01-28T15:43:22;32.42;;;14.15;;
62102;SDS011;48077;48.104;11.702;2023-01-28T15:45:50;30.90;;;14.57;;
62102;SDS011;48077;48.104;11.702;2023-01-28T15:48:17;32.70;;;13.88;;
62102;SDS011;48077;48.104;11.702;2023-01-28T15:50:43;30.55;;;12.63;;
62102;SDS011;48077;48.104;11.702;2023-01-28T15:53:07;24.85;;;11.40;;
62102;SDS011;48077;48.104;11.702;2023-01-28T15:55:39;35.67;;;16.55;;
62102;SDS011;48077;48.104;11.702;2023-01-28T16:00:33;44.88;;;19.77;;